»·PEaware :: N4732A KEMT-KSBA

N4732A :: KEMT-KSBA

FLIGHT INFORMATION

Flight Status: Arrived
Operator: Privately registered:
United States
More flights under this callsign
Pilot: Cody L. (17310)
Aircraft: CESSNA 172 SKYHAWK
(C172)
More flights by this aircraft type
Origin: KEMT El Monte
United States
Destination: KSBA Santa Barbara Mun
United States
More flights between these airports :: More routes between these airports
Route: VNY V186 FIM V186 DEANO
File this flight plan on PilotEdge
Remarks:
Altitude:
(Current/Filed)
4,500ft
Speed:
(Current/Filed)
115kts
Departed: 24-Dec-17 03:42 PM
Arrived: 24-Dec-17 04:42 PM
Distance/Time
Traveled:
92nm/1:00
Distance/Time
To Go:
Arrived

Flight Plot

Page will automatically refresh every two minutes.

Flight plan parsing failed; only flown route is shown


Map Options




Map Legend


Flown Route
Filed Route
Departure Airport
Arrival Airport
Navaid (VOR, NDB)
Fix

Horizontal Profiles

Position Reports

Time Latitude Longitude Heading Altitude Ground
Speed
24-Dec-17 15:46 34.090752 -118.031631 299 293ft 0kts
24-Dec-17 15:47 34.090752 -118.031631 299 293ft 0kts
24-Dec-17 15:48 34.085719 -118.035031 201 357ft 70kts
24-Dec-17 15:49 34.074483 -118.052547 306 918ft 99kts
24-Dec-17 15:50 34.099126 -118.059301 297 1664ft 91kts
24-Dec-17 15:51 34.104846 -118.088966 278 2263ft 95kts
24-Dec-17 15:52 34.111857 -118.117302 282 2804ft 97kts
24-Dec-17 15:53 34.120651 -118.147798 295 3390ft 98kts
24-Dec-17 15:54 34.147244 -118.152740 11 3980ft 101kts
24-Dec-17 15:55 34.171314 -118.159843 261 4352ft 101kts
24-Dec-17 15:56 34.164761 -118.193548 255 4485ft 105kts
24-Dec-17 15:57 34.159737 -118.227349 258 4488ft 104kts
24-Dec-17 15:58 34.160004 -118.262317 278 4488ft 105kts
24-Dec-17 15:59 34.166736 -118.296399 285 4487ft 106kts
24-Dec-17 16:00 34.175365 -118.328989 287 4488ft 107kts
24-Dec-17 16:01 34.184887 -118.362269 289 4487ft 108kts
24-Dec-17 16:02 34.194837 -118.395688 289 4487ft 108kts
24-Dec-17 16:03 34.204430 -118.427947 289 4520ft 106kts
24-Dec-17 16:04 34.213937 -118.459900 290 4541ft 107kts
24-Dec-17 16:05 34.224273 -118.493851 294 4542ft 109kts
24-Dec-17 16:06 34.235965 -118.527998 294 4542ft 110kts
24-Dec-17 16:07 34.247711 -118.562210 294 4542ft 110kts
24-Dec-17 16:08 34.259481 -118.596513 294 4542ft 110kts
24-Dec-17 16:09 34.271429 -118.631221 292 4486ft 114kts
24-Dec-17 16:10 34.282952 -118.664947 292 4487ft 112kts
24-Dec-17 16:11 34.294907 -118.699967 292 4488ft 112kts
24-Dec-17 16:12 34.306790 -118.734769 292 4488ft 112kts
24-Dec-17 16:13 34.318692 -118.769659 292 4488ft 112kts
24-Dec-17 16:14 34.330509 -118.804414 293 4490ft 112kts
24-Dec-17 16:15 34.342331 -118.838958 292 4486ft 106kts
24-Dec-17 16:16 34.353301 -118.871187 290 4487ft 102kts
24-Dec-17 16:17 34.354593 -118.904482 264 4488ft 101kts
24-Dec-17 16:18 34.352395 -118.938359 264 4488ft 101kts
24-Dec-17 16:19 34.349991 -118.972539 264 4488ft 101kts
24-Dec-17 16:20 34.347529 -119.006463 264 4488ft 102kts
24-Dec-17 16:21 34.344950 -119.041529 264 4488ft 105kts
24-Dec-17 16:22 34.342350 -119.076717 264 4488ft 106kts
24-Dec-17 16:23 34.339711 -119.112246 264 4487ft 106kts
24-Dec-17 16:24 34.337072 -119.147611 264 4487ft 106kts
24-Dec-17 16:25 34.334410 -119.183138 264 4487ft 106kts
24-Dec-17 16:26 34.331751 -119.218226 265 4486ft 102kts
24-Dec-17 16:27 34.329242 -119.251634 265 4487ft 98kts
24-Dec-17 16:28 34.326764 -119.284393 265 4487ft 98kts
24-Dec-17 16:29 34.324269 -119.317213 265 4487ft 98kts
24-Dec-17 16:30 34.321763 -119.350014 265 4487ft 98kts
24-Dec-17 16:31 34.319255 -119.382767 265 4487ft 97kts
24-Dec-17 16:32 34.317159 -119.415487 281 4484ft 98kts
24-Dec-17 16:33 34.324736 -119.447148 285 4487ft 98kts
24-Dec-17 16:34 34.332747 -119.478561 281 4486ft 98kts
24-Dec-17 16:35 34.345801 -119.507647 298 4487ft 99kts
24-Dec-17 16:36 34.359922 -119.536420 298 4441ft 100kts
24-Dec-17 16:37 34.371926 -119.560943 298 4245ft 100kts
24-Dec-17 16:38 34.386869 -119.589506 300 3938ft 100kts
24-Dec-17 16:39 34.401705 -119.618000 300 3627ft 100kts
24-Dec-17 16:40 34.416156 -119.646290 300 3291ft 97kts
24-Dec-17 16:41 34.428789 -119.670923 300 2862ft 85kts
24-Dec-17 16:42 34.430944 -119.698699 258 2374ft 81kts
24-Dec-17 16:43 34.429700 -119.725693 271 1950ft 83kts
24-Dec-17 16:44 34.429672 -119.753989 266 1535ft 78kts
24-Dec-17 16:45 34.429065 -119.780501 268 1127ft 84kts
24-Dec-17 16:46 34.428701 -119.808169 264 662ft 89kts
24-Dec-17 16:47 34.427964 -119.832840 268 60ft 64kts
24-Dec-17 16:48 34.427047 -119.841497 168 15ft 8kts
24-Dec-17 16:49 34.426983 -119.841482 170 15ft 0kts
24-Dec-17 16:50 34.426312 -119.838245 169 15ft 14kts
24-Dec-17 16:51 34.422953 -119.837304 169 15ft 9kts
24-Dec-17 16:52 34.422974 -119.836175 175 15ft 0kts
24-Dec-17 16:53 34.422974 -119.836175 175 15ft 0kts
24-Dec-17 16:54 34.422974 -119.836175 175 15ft 0kts
24-Dec-17 16:55 34.422974 -119.836175 175 15ft 0kts
24-Dec-17 16:56 34.422974 -119.836175 175 15ft 0kts
24-Dec-17 16:57 34.422974 -119.836175 175 15ft 0kts
24-Dec-17 16:58 34.422974 -119.836175 175 15ft 0kts
24-Dec-17 16:59 34.422974 -119.836175 175 15ft 0kts
24-Dec-17 17:00 34.422974 -119.836175 175 15ft 0kts
24-Dec-17 17:01 34.422974 -119.836175 175 15ft 0kts
24-Dec-17 17:02 34.422974 -119.836175 175 15ft 0kts

Navigation Log

Ident Type
Flight plan parsing failed, navigation log unavailable